Time;durP1;ratioP1;P1;durP2;ratioP2;P2;SDS_P1;SDS_P2;PMS_P1;PMS_P2;Temp;Humidity;BMP_temperature;BMP_pressure;BME280_temperature;BME280_humidity;BME280_pressure;Samples;Min_cycle;Max_cycle;Signal;HPM_P1;HPM_P2
2021/03/11 00:00:12;;;;;;;7.10;5.07;;;5.80;80.10;;;;;;5075678;28;20396;-72
2021/03/11 00:02:38;;;;;;;7.10;5.75;;;5.70;79.00;;;;;;5075747;28;20166;-73
2021/03/11 00:05:06;;;;;;;4.20;3.63;;;5.90;77.40;;;;;;5075532;28;20180;-73
2021/03/11 00:07:32;;;;;;;5.90;4.65;;;6.10;77.40;;;;;;5075342;28;20502;-73
2021/03/11 00:09:58;;;;;;;6.10;4.20;;;6.30;76.70;;;;;;5075586;28;20201;-73
2021/03/11 00:12:23;;;;;;;7.00;5.27;;;6.30;76.00;;;;;;5075153;28;20404;-73
2021/03/11 00:14:49;;;;;;;6.73;4.77;;;6.40;76.30;;;;;;5075248;28;20184;-73
2021/03/11 00:17:15;;;;;;;7.53;4.97;;;6.40;75.80;;;;;;5075538;28;20211;-72
2021/03/11 00:19:40;;;;;;;5.83;4.50;;;6.50;74.80;;;;;;5075157;28;20206;-73
2021/03/11 00:22:06;;;;;;;6.37;4.33;;;6.50;70.00;;;;;;5075453;28;20646;-72
2021/03/11 00:24:32;;;;;;;5.13;4.10;;;6.50;69.10;;;;;;5075256;28;20166;-71
2021/03/11 00:26:57;;;;;;;9.57;5.10;;;6.70;71.60;;;;;;5075214;28;20167;-74
2021/03/11 00:29:24;;;;;;;10.17;3.93;;;6.80;72.00;;;;;;5075092;28;20658;-72
2021/03/11 00:31:50;;;;;;;6.00;4.00;;;6.90;67.40;;;;;;5074972;28;20208;-72
2021/03/11 00:34:15;;;;;;;3.97;3.50;;;6.80;66.10;;;;;;5074893;28;20205;-72
2021/03/11 00:36:41;;;;;;;7.57;4.07;;;6.70;68.70;;;;;;5075019;28;20218;-72
2021/03/11 00:39:07;;;;;;;6.50;5.30;;;6.70;65.00;;;;;;5074813;28;20585;-73
2021/03/11 00:41:34;;;;;;;7.83;3.33;;;6.80;66.10;;;;;;5074800;28;20168;-74
2021/03/11 00:43:59;;;;;;;4.65;3.10;;;6.90;65.20;;;;;;5074697;28;20407;-73
2021/03/11 00:46:25;;;;;;;3.47;3.10;;;7.00;64.60;;;;;;5074862;28;20177;-73
2021/03/11 00:48:50;;;;;;;2.80;2.53;;;6.80;64.60;;;;;;5074768;28;20246;-73
2021/03/11 00:51:16;;;;;;;4.57;3.77;;;6.90;65.70;;;;;;5074576;28;20165;-73
2021/03/11 00:53:42;;;;;;;5.63;3.00;;;6.80;63.40;;;;;;5074373;28;20175;-72
2021/03/11 00:56:07;;;;;;;4.93;3.57;;;6.90;65.00;;;;;;5074675;28;20664;-73
2021/03/11 00:58:33;;;;;;;3.13;2.83;;;6.70;63.40;;;;;;5074434;28;20235;-74
2021/03/11 01:00:59;;;;;;;4.53;2.77;;;6.90;63.80;;;;;;5074480;28;20323;-73
2021/03/11 01:03:24;;;;;;;4.70;3.53;;;7.00;63.30;;;;;;5074221;28;20160;-73
2021/03/11 01:05:50;;;;;;;2.90;2.70;;;7.20;63.80;;;;;;5074438;28;20897;-72
2021/03/11 01:08:16;;;;;;;6.50;3.70;;;7.30;62.10;;;;;;5074191;28;20195;-73
2021/03/11 01:10:42;;;;;;;4.20;3.23;;;7.40;59.60;;;;;;5074291;28;20413;-72
2021/03/11 01:13:08;;;;;;;6.00;4.83;;;7.40;60.60;;;;;;5074000;28;20546;-73
2021/03/11 01:15:41;;;;;;;6.20;3.60;;;7.50;58.40;;;;;;5074036;28;20980;-73
2021/03/11 01:18:09;;;;;;;5.40;3.65;;;7.60;57.90;;;;;;5074059;28;20191;-72
2021/03/11 01:20:34;;;;;;;4.55;2.80;;;7.80;59.40;;;;;;5073549;28;20162;-72
2021/03/11 01:23:00;;;;;;;5.40;3.70;;;7.90;59.40;;;;;;5073813;28;20177;-73
2021/03/11 01:25:26;;;;;;;8.10;4.80;;;7.80;60.00;;;;;;5073861;28;20501;-72
2021/03/11 01:27:52;;;;;;;5.13;3.70;;;7.90;56.70;;;;;;5073951;28;20194;-73
2021/03/11 01:30:18;;;;;;;8.60;4.47;;;7.90;57.50;;;;;;5073878;28;20513;-73
2021/03/11 01:32:43;;;;;;;4.75;3.97;;;8.00;56.80;;;;;;5073697;28;20181;-72
2021/03/11 01:35:10;;;;;;;5.40;3.30;;;8.10;56.00;;;;;;5073703;28;20251;-72
2021/03/11 01:37:36;;;;;;;5.30;4.25;;;8.20;57.10;;;;;;5073498;28;20228;-73
2021/03/11 01:40:04;;;;;;;4.70;4.23;;;8.10;57.90;;;;;;5073902;28;20195;-72
2021/03/11 01:42:29;;;;;;;4.30;3.05;;;8.10;57.10;;;;;;5073498;28;20172;-73
2021/03/11 01:44:56;;;;;;;4.63;3.90;;;8.10;58.50;;;;;;5073807;28;20541;-73
2021/03/11 01:47:21;;;;;;;6.93;3.97;;;8.10;57.00;;;;;;5073820;28;20174;-72
2021/03/11 01:49:47;;;;;;;4.17;3.77;;;8.20;55.70;;;;;;5073442;28;20178;-73
2021/03/11 01:52:13;;;;;;;4.70;4.30;;;8.20;55.30;;;;;;5073374;28;20177;-73
2021/03/11 01:54:39;;;;;;;6.20;4.33;;;8.30;56.80;;;;;;5073634;28;20530;-73
2021/03/11 01:57:05;;;;;;;7.10;4.10;;;8.10;55.90;;;;;;5073422;28;20545;-72
2021/03/11 01:59:31;;;;;;;6.68;4.47;;;8.10;56.40;;;;;;5073352;28;20840;-73
2021/03/11 02:01:57;;;;;;;5.70;3.90;;;8.20;57.70;;;;;;5073665;28;20175;-72
2021/03/11 02:04:23;;;;;;;6.63;4.25;;;8.30;56.80;;;;;;5073405;28;20190;-73
2021/03/11 02:06:50;;;;;;;4.07;3.47;;;8.30;56.40;;;;;;5073498;28;20186;-73
2021/03/11 02:09:15;;;;;;;7.32;3.63;;;8.40;56.60;;;;;;5073067;28;20192;-72
2021/03/11 02:11:57;;;;;;;6.70;4.00;;;8.40;58.70;;;;;;5073583;28;20237;-73
2021/03/11 02:14:30;;;;;;;5.30;3.70;;;8.40;57.20;;;;;;5073034;28;20203;-72
2021/03/11 02:16:59;;;;;;;5.22;4.40;;;8.40;59.30;;;;;;5073397;28;20308;-72
2021/03/11 02:19:31;;;;;;;8.48;4.80;;;8.30;58.40;;;;;;5073128;28;20233;-73
2021/03/11 02:22:21;;;;;;;9.70;5.20;;;8.40;57.60;;;;;;5073317;28;20202;-73
2021/03/11 02:25:12;;;;;;;5.70;3.92;;;8.30;57.30;;;;;;5073368;28;20168;-73
2021/03/11 02:27:56;;;;;;;9.35;5.05;;;8.20;55.10;;;;;;5072595;28;20212;-72
2021/03/11 02:30:22;;;;;;;6.07;4.30;;;8.30;55.20;;;;;;5073480;28;20237;-72
2021/03/11 02:32:49;;;;;;;5.75;3.95;;;8.30;54.70;;;;;;5075303;28;20641;-72
2021/03/11 02:35:15;;;;;;;7.13;4.70;;;8.40;55.10;;;;;;5077157;28;20250;-73
2021/03/11 02:37:44;;;;;;;6.78;4.55;;;8.40;54.90;;;;;;5077262;28;20175;-73
2021/03/11 02:40:16;;;;;;;6.53;5.35;;;8.40;56.90;;;;;;5077551;28;20162;-73
2021/03/11 02:42:43;;;;;;;11.27;5.75;;;8.40;55.70;;;;;;5077080;28;20166;-73
2021/03/11 02:45:15;;;;;;;5.15;4.05;;;8.40;54.90;;;;;;5077082;28;20179;-72
2021/03/11 02:47:42;;;;;;;5.70;4.40;;;8.40;58.20;;;;;;5077175;28;20543;-73
2021/03/11 02:50:09;;;;;;;5.03;3.60;;;8.20;58.10;;;;;;5076802;28;20168;-74
2021/03/11 02:52:35;;;;;;;8.77;4.28;;;7.80;59.00;;;;;;5076689;28;20170;-73
2021/03/11 02:55:02;;;;;;;6.22;3.78;;;7.50;60.70;;;;;;5076874;28;20199;-73
2021/03/11 02:57:30;;;;;;;5.68;3.83;;;7.60;61.90;;;;;;5076612;28;20207;-73
2021/03/11 02:59:58;;;;;;;8.88;5.35;;;7.80;62.30;;;;;;5076764;28;20171;-73
2021/03/11 03:02:25;;;;;;;7.28;3.85;;;7.90;62.50;;;;;;5076681;28;20182;-72
2021/03/11 03:04:56;;;;;;;3.20;2.80;;;8.10;64.10;;;;;;5076765;28;20534;-72
2021/03/11 03:07:23;;;;;;;3.65;3.08;;;8.10;67.90;;;;;;5076641;28;20610;-72
2021/03/11 03:09:51;;;;;;;5.53;3.38;;;7.90;68.20;;;;;;5076552;28;20228;-73
2021/03/11 03:12:18;;;;;;;7.45;3.60;;;7.70;68.80;;;;;;5076494;28;20467;-72
2021/03/11 03:14:49;;;;;;;4.80;3.45;;;7.60;68.10;;;;;;5076464;28;20174;-72
2021/03/11 03:17:18;;;;;;;4.68;3.95;;;7.70;66.20;;;;;;5076526;28;20206;-73
2021/03/11 03:19:45;;;;;;;8.07;4.43;;;7.60;68.60;;;;;;5076253;28;20186;-72
2021/03/11 03:22:11;;;;;;;5.85;3.88;;;7.60;70.50;;;;;;5076152;28;20225;-74
2021/03/11 03:24:38;;;;;;;4.18;3.58;;;7.70;65.70;;;;;;5076388;28;20196;-73
2021/03/11 03:27:04;;;;;;;5.05;3.38;;;7.70;66.70;;;;;;5076335;28;20176;-73
2021/03/11 03:29:29;;;;;;;6.20;4.10;;;7.80;67.40;;;;;;5076222;28;20249;-72
2021/03/11 03:31:55;;;;;;;4.20;3.20;;;7.70;67.40;;;;;;5076092;28;20806;-72
2021/03/11 03:34:21;;;;;;;6.07;3.70;;;7.70;63.10;;;;;;5074724;28;20190;-73
2021/03/11 03:36:47;;;;;;;4.90;3.83;;;7.70;63.30;;;;;;5076097;28;20230;-73
2021/03/11 03:39:12;;;;;;;7.23;4.90;;;7.90;64.30;;;;;;5075927;28;20431;-72
2021/03/11 03:41:44;;;;;;;3.70;3.07;;;8.00;65.40;;;;;;5076214;28;20179;-72
2021/03/11 03:44:12;;;;;;;5.65;3.72;;;8.10;65.50;;;;;;5075184;28;20313;-73
2021/03/11 03:46:40;;;;;;;6.47;3.80;;;8.10;65.50;;;;;;5075983;28;20167;-72
2021/03/11 03:49:11;;;;;;;6.22;4.25;;;8.10;66.40;;;;;;5075754;28;20664;-73
2021/03/11 03:51:39;;;;;;;5.78;3.85;;;7.90;69.20;;;;;;5075968;28;20171;-71
2021/03/11 03:54:11;;;;;;;3.83;2.67;;;7.80;73.50;;;;;;5075723;28;20660;-73
2021/03/11 03:56:46;;;;;;;5.00;3.45;;;7.70;76.50;;;;;;5075756;28;20213;-74
2021/03/11 03:59:16;;;;;;;5.60;4.35;;;7.60;84.60;;;;;;5075473;28;20190;-72
2021/03/11 04:01:43;;;;;;;4.75;3.25;;;7.50;87.10;;;;;;5075707;28;20251;-73
2021/03/11 04:04:11;;;;;;;4.40;3.72;;;7.40;88.70;;;;;;5075627;28;20220;-73
2021/03/11 04:06:38;;;;;;;6.65;3.45;;;7.60;88.50;;;;;;5075551;28;20172;-73
2021/03/11 04:09:12;;;;;;;4.03;2.33;;;7.60;90.40;;;;;;5075528;28;20241;-73
2021/03/11 04:11:44;;;;;;;4.30;3.40;;;7.60;90.10;;;;;;5075450;28;20172;-72
2021/03/11 04:14:11;;;;;;;7.47;3.72;;;7.60;91.70;;;;;;5074096;28;20262;-73
2021/03/11 04:16:37;;;;;;;4.50;3.63;;;7.60;91.80;;;;;;5075176;28;20590;-73
2021/03/11 04:19:03;;;;;;;6.85;3.05;;;7.70;92.20;;;;;;5075369;28;20193;-72
2021/03/11 04:21:30;;;;;;;5.50;3.72;;;7.40;92.90;;;;;;5075438;28;20183;-73
2021/03/11 04:23:57;;;;;;;4.25;3.47;;;7.40;93.70;;;;;;5074936;28;20630;-73
2021/03/11 04:26:23;;;;;;;6.97;3.42;;;7.40;94.30;;;;;;5075343;28;20171;-73
2021/03/11 04:28:48;;;;;;;8.13;4.47;;;7.30;94.50;;;;;;5075070;28;20261;-73
2021/03/11 04:31:16;;;;;;;4.90;3.60;;;7.20;94.90;;;;;;5075185;28;20421;-73
2021/03/11 04:33:43;;;;;;;2.83;2.63;;;7.30;95.00;;;;;;5074796;28;20288;-74
2021/03/11 04:36:10;;;;;;;4.32;3.13;;;7.20;95.50;;;;;;5075064;28;20219;-73
2021/03/11 04:38:35;;;;;;;4.22;3.50;;;7.30;95.70;;;;;;5075078;28;20552;-73
2021/03/11 04:41:01;;;;;;;4.77;3.17;;;7.30;95.60;;;;;;5074894;28;20166;-73
2021/03/11 04:43:28;;;;;;;6.97;3.22;;;7.40;95.60;;;;;;5074813;28;20167;-73
2021/03/11 04:45:54;;;;;;;4.78;4.32;;;7.50;95.30;;;;;;5074892;28;20645;-72
2021/03/11 04:48:21;;;;;;;3.72;2.83;;;7.40;95.40;;;;;;5074717;28;20244;-72
2021/03/11 04:50:48;;;;;;;5.07;3.05;;;7.40;95.40;;;;;;5074920;28;20180;-73
2021/03/11 04:53:16;;;;;;;3.88;3.38;;;7.30;95.20;;;;;;5073107;28;20716;-74
2021/03/11 04:55:45;;;;;;;4.63;3.08;;;7.20;95.60;;;;;;5073468;28;20286;-74
2021/03/11 04:58:12;;;;;;;7.45;4.07;;;7.30;95.90;;;;;;5074297;28;20233;-73
2021/03/11 05:00:38;;;;;;;3.78;3.42;;;7.40;95.20;;;;;;5074467;28;20202;-73
2021/03/11 05:03:08;;;;;;;3.92;3.50;;;7.40;95.00;;;;;;5074364;28;20199;-74
2021/03/11 05:05:36;;;;;;;3.72;3.13;;;7.40;95.20;;;;;;5074579;28;20182;-73
2021/03/11 05:08:03;;;;;;;2.95;2.70;;;7.50;94.90;;;;;;5074189;28;20656;-73
2021/03/11 05:10:28;;;;;;;7.97;3.90;;;7.60;94.80;;;;;;5074276;28;20734;-73
2021/03/11 05:12:54;;;;;;;4.63;2.87;;;7.70;94.50;;;;;;5074134;28;20171;-74
2021/03/11 05:15:21;;;;;;;7.30;3.45;;;7.60;94.80;;;;;;5074039;28;20190;-73
2021/03/11 05:17:46;;;;;;;4.60;3.50;;;7.50;94.40;;;;;;5074203;28;20548;-73
2021/03/11 05:20:13;;;;;;;4.57;3.80;;;7.50;94.70;;;;;;5074059;28;20453;-73
2021/03/11 05:22:39;;;;;;;5.47;3.63;;;7.40;94.60;;;;;;5074076;28;20706;-73
2021/03/11 05:25:08;;;;;;;3.00;2.70;;;7.40;94.80;;;;;;5074003;28;20200;-73
2021/03/11 05:27:34;;;;;;;5.18;3.35;;;7.40;94.70;;;;;;5073964;28;20902;-73
2021/03/11 05:30:00;;;;;;;4.07;3.33;;;7.30;95.10;;;;;;5074052;28;20177;-72
2021/03/11 05:32:25;;;;;;;4.03;3.70;;;7.40;95.50;;;;;;5073679;28;20913;-73
2021/03/11 05:34:51;;;;;;;4.83;3.30;;;7.50;95.20;;;;;;5073970;28;20419;-74
2021/03/11 05:37:17;;;;;;;3.83;3.47;;;7.50;94.80;;;;;;5073694;28;20255;-73
2021/03/11 05:39:42;;;;;;;7.40;2.57;;;7.50;95.00;;;;;;5073749;28;20252;-73
2021/03/11 05:42:12;;;;;;;4.10;2.70;;;7.50;94.70;;;;;;5073593;28;20171;-73
2021/03/11 05:44:38;;;;;;;3.92;3.10;;;7.50;94.60;;;;;;5073443;28;20166;-73
2021/03/11 05:47:06;;;;;;;4.95;2.72;;;7.50;94.60;;;;;;5073736;28;20252;-73
2021/03/11 05:49:34;;;;;;;4.80;3.65;;;7.40;95.20;;;;;;5073422;28;20186;-73
2021/03/11 05:52:01;;;;;;;3.60;3.28;;;7.20;95.00;;;;;;5073575;28;20175;-73
2021/03/11 05:54:28;;;;;;;3.60;2.63;;;7.20;94.40;;;;;;5073456;28;20180;-73
2021/03/11 05:56:55;;;;;;;4.43;2.95;;;7.20;94.70;;;;;;5073438;28;20222;-73
2021/03/11 05:59:21;;;;;;;3.63;2.95;;;7.40;94.60;;;;;;5073323;28;20185;-73
2021/03/11 06:01:47;;;;;;;3.07;2.73;;;7.50;93.60;;;;;;5073583;28;20162;-73
2021/03/11 06:04:15;;;;;;;3.25;2.00;;;7.50;94.00;;;;;;5073213;28;20397;-73
2021/03/11 06:06:42;;;;;;;2.15;1.95;;;7.40;93.80;;;;;;5072759;28;20187;-73
2021/03/11 06:09:08;;;;;;;3.28;3.00;;;7.50;93.20;;;;;;5072552;28;20200;-73
2021/03/11 06:11:35;;;;;;;4.90;2.77;;;7.80;92.60;;;;;;5073344;28;20535;-74
2021/03/11 06:14:02;;;;;;;2.97;2.67;;;7.90;93.00;;;;;;5073354;28;20821;-73
2021/03/11 06:16:32;;;;;;;2.20;2.00;;;8.00;92.30;;;;;;5072825;28;20233;-74
2021/03/11 06:18:58;;;;;;;2.47;2.05;;;8.10;91.70;;;;;;5073338;28;20633;-74
2021/03/11 06:21:24;;;;;;;2.80;1.80;;;8.10;91.40;;;;;;5073248;28;20237;-73
2021/03/11 06:23:51;;;;;;;3.53;2.07;;;8.20;91.10;;;;;;5073167;28;20602;-74
2021/03/11 06:26:16;;;;;;;2.38;2.08;;;8.30;90.90;;;;;;5073284;28;20632;-73
2021/03/11 06:28:45;;;;;;;2.33;1.60;;;8.20;90.70;;;;;;5073275;28;20203;-73
2021/03/11 06:31:30;;;;;;;3.08;2.70;;;8.20;90.60;;;;;;5073072;28;20466;-73
2021/03/11 06:33:58;;;;;;;2.17;1.65;;;8.40;89.20;;;;;;5072986;28;20547;-73
2021/03/11 06:36:31;;;;;;;2.28;1.90;;;8.50;89.10;;;;;;5073106;28;20196;-73
2021/03/11 06:39:00;;;;;;;2.83;2.40;;;8.20;89.30;;;;;;5072831;28;20218;-73
2021/03/11 06:41:43;;;;;;;2.38;2.17;;;8.40;88.80;;;;;;5072923;28;20169;-72
2021/03/11 06:44:08;;;;;;;2.60;2.10;;;8.50;88.50;;;;;;5072974;28;20179;-74
2021/03/11 06:46:34;;;;;;;2.60;2.00;;;8.50;89.00;;;;;;5072401;28;20258;-73
2021/03/11 06:49:10;;;;;;;1.70;1.60;;;8.60;88.90;;;;;;5072758;28;20287;-73
2021/03/11 06:51:36;;;;;;;1.77;1.67;;;8.80;89.00;;;;;;5071863;28;20196;-72
2021/03/11 06:54:02;;;;;;;5.03;2.30;;;9.00;89.60;;;;;;5072680;28;20256;-68
2021/03/11 06:56:28;;;;;;;2.85;2.00;;;9.10;88.00;;;;;;5072551;28;20459;-68
2021/03/11 06:59:04;;;;;;;2.60;2.35;;;9.10;89.70;;;;;;5072777;28;20558;-69
2021/03/11 07:01:34;;;;;;;3.75;2.15;;;9.00;86.20;;;;;;5072983;28;20160;-70
2021/03/11 07:04:03;;;;;;;1.65;1.55;;;9.20;86.40;;;;;;5072670;28;20258;-69
2021/03/11 07:06:35;;;;;;;2.15;1.83;;;9.40;85.70;;;;;;5072913;28;20184;-69
2021/03/11 07:09:03;;;;;;;1.73;1.63;;;9.40;84.70;;;;;;5072769;28;20201;-69
2021/03/11 07:11:29;;;;;;;3.72;2.15;;;9.40;85.50;;;;;;5073095;28;20565;-69
2021/03/11 07:13:58;;;;;;;2.45;2.20;;;9.50;85.10;;;;;;5072663;28;20208;-69
2021/03/11 07:16:26;;;;;;;1.55;1.45;;;9.50;85.10;;;;;;5072654;28;20315;-68
2021/03/11 07:19:18;;;;;;;2.13;1.95;;;9.60;85.80;;;;;;5073069;28;20200;-69
2021/03/11 07:21:46;;;;;;;3.05;1.70;;;9.70;86.30;;;;;;5073943;28;20542;-69
2021/03/11 07:24:13;;;;;;;2.90;2.15;;;9.60;86.90;;;;;;5074902;28;20169;-69
2021/03/11 07:26:56;;;;;;;5.85;2.08;;;9.70;86.20;;;;;;5074763;28;20169;-68
2021/03/11 07:29:21;;;;;;;2.97;2.05;;;9.80;85.70;;;;;;5074787;28;20204;-67
2021/03/11 07:31:58;;;;;;;6.30;2.33;;;9.90;85.80;;;;;;5075354;28;20583;-67
2021/03/11 07:34:27;;;;;;;2.20;2.00;;;9.80;83.90;;;;;;5076045;28;20663;-68
2021/03/11 07:36:58;;;;;;;2.30;1.98;;;9.80;84.10;;;;;;5076153;28;20208;-69
2021/03/11 07:39:35;;;;;;;2.85;1.67;;;9.90;84.30;;;;;;5076026;28;20204;-70
2021/03/11 07:42:01;;;;;;;2.65;1.77;;;9.90;83.30;;;;;;5076361;28;20579;-68
2021/03/11 07:44:29;;;;;;;1.40;1.30;;;9.90;82.00;;;;;;5075774;28;20248;-69
2021/03/11 07:46:54;;;;;;;2.72;2.53;;;10.00;83.10;;;;;;5076220;28;20169;-68
2021/03/11 07:49:21;;;;;;;3.83;2.40;;;10.10;80.80;;;;;;5075964;28;20674;-69
2021/03/11 07:51:49;;;;;;;2.70;1.88;;;10.30;80.00;;;;;;5075990;28;20399;-69
2021/03/11 07:54:17;;;;;;;3.25;2.00;;;10.40;79.10;;;;;;5075577;28;20178;-68
2021/03/11 07:56:42;;;;;;;5.20;1.85;;;10.50;78.40;;;;;;5075615;28;20228;-69
2021/03/11 07:59:08;;;;;;;2.90;2.00;;;10.40;78.70;;;;;;5075710;28;20623;-69
2021/03/11 08:01:49;;;;;;;1.87;1.43;;;10.40;78.40;;;;;;5075743;28;20173;-69
2021/03/11 08:04:18;;;;;;;1.58;1.48;;;10.70;79.20;;;;;;5075647;28;20400;-69
2021/03/11 08:06:45;;;;;;;3.40;2.03;;;10.90;78.00;;;;;;5075492;28;20174;-69
2021/03/11 08:09:10;;;;;;;8.00;1.67;;;11.00;77.30;;;;;;5075402;28;20557;-69
2021/03/11 08:11:42;;;;;;;2.17;1.27;;;11.00;76.30;;;;;;5075482;28;20174;-69
2021/03/11 08:14:17;;;;;;;3.05;1.60;;;11.10;77.30;;;;;;5074088;28;20174;-69
2021/03/11 08:16:42;;;;;;;1.20;1.20;;;11.20;76.50;;;;;;5075388;28;20338;-68
2021/03/11 08:19:08;;;;;;;1.27;1.17;;;11.30;76.10;;;;;;5075301;28;20741;-68
2021/03/11 08:21:34;;;;;;;1.93;1.60;;;11.30;75.60;;;;;;5075316;28;20670;-68
2021/03/11 08:24:00;;;;;;;2.47;1.30;;;11.10;75.90;;;;;;5075060;28;20662;-69
2021/03/11 08:26:38;;;;;;;2.05;1.00;;;11.20;76.20;;;;;;5075236;28;20177;-69
2021/03/11 08:29:17;;;;;;;2.80;1.45;;;11.30;76.60;;;;;;5075106;28;20199;-69
2021/03/11 08:31:43;;;;;;;1.30;1.20;;;11.20;77.00;;;;;;5075015;28;20166;-68
2021/03/11 08:34:09;;;;;;;1.88;1.38;;;11.30;77.50;;;;;;5074838;28;20219;-68
2021/03/11 08:36:37;;;;;;;1.70;1.47;;;11.40;77.60;;;;;;5074951;28;20225;-68
2021/03/11 08:39:24;;;;;;;1.70;1.60;;;11.40;77.30;;;;;;5074864;28;20412;-68
2021/03/11 08:41:49;;;;;;;1.25;1.15;;;11.50;77.90;;;;;;5074989;28;20638;-68
2021/03/11 08:44:42;;;;;;;2.47;1.63;;;11.50;78.30;;;;;;5074721;28;20174;-68
2021/03/11 08:47:10;;;;;;;2.38;1.48;;;11.40;79.50;;;;;;5074973;28;20181;-68
2021/03/11 08:49:43;;;;;;;1.73;1.30;;;11.50;79.80;;;;;;5074707;28;20217;-68
2021/03/11 08:52:40;;;;;;;1.55;0.95;;;11.70;81.00;;;;;;5074318;28;20174;-68
2021/03/11 08:55:32;;;;;;;1.98;1.60;;;11.90;80.10;;;;;;5074929;28;20170;-67
2021/03/11 08:57:59;;;;;;;1.00;0.90;;;12.00;81.00;;;;;;5074467;28;20603;-68
2021/03/11 09:01:00;;;;;;;1.30;0.90;;;12.00;82.00;;;;;;5074638;28;20240;-69
2021/03/11 09:03:41;;;;;;;1.60;1.50;;;12.20;81.80;;;;;;5074258;28;20172;-69
2021/03/11 09:06:08;;;;;;;2.57;0.93;;;12.40;82.10;;;;;;5074368;28;20897;-69
2021/03/11 09:08:36;;;;;;;1.43;1.33;;;12.50;82.80;;;;;;5074006;28;20423;-69
2021/03/11 09:11:14;;;;;;;1.17;0.77;;;12.70;84.40;;;;;;5074472;28;20483;-69
2021/03/11 09:13:43;;;;;;;1.03;0.93;;;13.10;84.60;;;;;;5073730;28;20924;-69
2021/03/11 09:16:10;;;;;;;2.37;1.30;;;13.30;86.00;;;;;;5074006;28;20562;-69
2021/03/11 09:18:36;;;;;;;1.70;1.23;;;12.90;87.90;;;;;;5073776;28;20426;-69
2021/03/11 09:21:04;;;;;;;1.23;1.10;;;12.70;90.00;;;;;;5074188;28;20400;-69
2021/03/11 09:23:39;;;;;;;2.20;1.30;;;12.50;90.70;;;;;;5073715;28;20869;-69
2021/03/11 09:26:05;;;;;;;1.73;1.17;;;12.20;91.60;;;;;;5074222;28;20404;-69
2021/03/11 09:28:32;;;;;;;1.90;1.27;;;12.20;93.00;;;;;;5074077;28;20511;-69
2021/03/11 09:30:58;;;;;;;1.23;1.00;;;12.40;92.70;;;;;;5073955;28;20963;-69
2021/03/11 09:33:24;;;;;;;1.17;1.07;;;12.70;92.80;;;;;;5073686;28;20182;-69
2021/03/11 09:35:50;;;;;;;4.03;1.43;;;12.80;92.20;;;;;;5073961;28;20617;-69
2021/03/11 09:38:21;;;;;;;1.70;1.23;;;12.80;92.40;;;;;;5073712;28;20452;-69
2021/03/11 09:40:52;;;;;;;1.43;1.33;;;12.60;92.70;;;;;;5073701;28;20415;-69
2021/03/11 09:43:24;;;;;;;1.10;1.00;;;12.30;93.80;;;;;;5073082;28;20847;-69
2021/03/11 09:45:56;;;;;;;2.10;1.27;;;12.20;94.40;;;;;;5073658;28;20412;-69
2021/03/11 09:48:29;;;;;;;1.50;1.40;;;11.80;95.00;;;;;;5073732;28;20231;-69
2021/03/11 09:51:09;;;;;;;1.40;1.30;;;11.60;96.70;;;;;;5073668;28;20619;-72
2021/03/11 09:53:40;;;;;;;1.63;1.52;;;11.70;96.30;;;;;;5073532;28;20634;-73
2021/03/11 09:56:13;;;;;;;1.27;1.10;;;11.50;96.80;;;;;;5073031;28;20189;-73
2021/03/11 09:58:43;;;;;;;1.70;1.60;;;11.60;97.10;;;;;;5073581;28;20193;-72
2021/03/11 10:01:09;;;;;;;2.03;1.67;;;11.40;97.40;;;;;;5074092;28;20226;-73
2021/03/11 10:03:37;;;;;;;4.30;2.10;;;11.30;98.20;;;;;;5073581;28;20174;-73
2021/03/11 10:06:05;;;;;;;1.77;1.63;;;11.40;98.40;;;;;;5073672;28;20517;-72
2021/03/11 10:08:37;;;;;;;1.55;1.15;;;11.30;98.50;;;;;;5073201;28;20196;-72
2021/03/11 10:11:13;;;;;;;1.33;1.27;;;11.10;98.60;;;;;;5073274;28;20169;-73
2021/03/11 10:13:47;;;;;;;1.80;1.40;;;11.10;99.00;;;;;;5072363;28;20251;-73
2021/03/11 10:16:13;;;;;;;1.15;0.98;;;11.10;99.00;;;;;;5073059;28;20205;-73
2021/03/11 10:19:00;;;;;;;1.70;1.05;;;11.10;99.30;;;;;;5073389;28;20193;-72
2021/03/11 10:21:27;;;;;;;1.17;1.08;;;11.10;99.10;;;;;;5073509;28;20169;-72
2021/03/11 10:23:53;;;;;;;0.93;0.90;;;11.20;99.20;;;;;;5073044;28;20243;-73
2021/03/11 10:26:22;;;;;;;2.27;1.40;;;11.30;99.00;;;;;;5072949;28;20233;-73
2021/03/11 10:28:51;;;;;;;1.23;0.80;;;11.30;98.50;;;;;;5073201;28;20568;-72
2021/03/11 10:31:17;;;;;;;2.15;0.93;;;11.40;98.80;;;;;;5073375;28;20173;-72
2021/03/11 10:33:43;;;;;;;2.70;2.23;;;11.50;98.90;;;;;;5073243;28;20169;-68
2021/03/11 10:36:15;;;;;;;4.10;1.60;;;11.50;98.80;;;;;;5073432;28;20454;-70
2021/03/11 10:38:41;;;;;;;2.25;2.05;;;11.80;98.50;;;;;;5073421;28;20186;-70
2021/03/11 10:41:17;;;;;;;3.20;1.52;;;11.90;98.00;;;;;;5073188;28;20609;-70
2021/03/11 10:43:44;;;;;;;1.10;1.10;;;11.90;97.60;;;;;;5073237;28;20516;-68
2021/03/11 10:46:28;;;;;;;1.80;1.50;;;12.00;97.70;;;;;;5073046;28;20170;-68
2021/03/11 10:48:53;;;;;;;1.63;0.90;;;12.00;97.90;;;;;;5073245;28;20190;-69
2021/03/11 10:51:21;;;;;;;1.90;1.17;;;11.80;97.30;;;;;;5073508;28;20543;-68
2021/03/11 10:53:47;;;;;;;5.93;3.78;;;11.80;97.60;;;;;;5075299;28;20414;-70
2021/03/11 10:56:13;;;;;;;1.60;1.05;;;11.70;97.30;;;;;;5077028;28;20224;-69
2021/03/11 10:58:39;;;;;;;1.83;1.17;;;11.70;97.60;;;;;;5077175;28;20547;-68
2021/03/11 11:01:22;;;;;;;0.60;0.60;;;11.70;97.70;;;;;;5077339;28;20465;-67
2021/03/11 11:03:48;;;;;;;1.45;1.05;;;11.80;97.60;;;;;;5076423;28;20162;-68
2021/03/11 11:06:14;;;;;;;1.20;1.10;;;11.80;97.70;;;;;;5076598;28;20173;-69
2021/03/11 11:08:46;;;;;;;2.63;1.50;;;11.80;97.80;;;;;;5075827;28;20666;-68
2021/03/11 11:11:12;;;;;;;1.10;1.00;;;11.90;97.20;;;;;;5076585;28;20192;-69
2021/03/11 11:13:38;;;;;;;1.52;1.40;;;11.70;97.20;;;;;;5076633;28;20541;-69
2021/03/11 11:16:04;;;;;;;1.55;1.40;;;11.70;97.40;;;;;;5076407;28;20202;-69
2021/03/11 11:18:31;;;;;;;0.77;0.77;;;11.70;97.50;;;;;;5076521;28;20194;-68
2021/03/11 11:20:57;;;;;;;2.28;0.90;;;11.70;96.90;;;;;;5075300;28;20256;-69
2021/03/11 11:23:23;;;;;;;1.15;1.05;;;11.60;97.40;;;;;;5076500;28;20178;-68
2021/03/11 11:25:49;;;;;;;1.13;1.13;;;11.50;97.30;;;;;;5076686;28;20193;-69
2021/03/11 11:28:14;;;;;;;1.07;0.97;;;11.50;98.40;;;;;;5075910;28;20199;-68
2021/03/11 11:30:41;;;;;;;1.17;1.10;;;11.40;98.80;;;;;;5076337;28;20162;-69
2021/03/11 11:33:07;;;;;;;0.88;0.70;;;11.40;99.60;;;;;;5076188;28;20193;-68
2021/03/11 11:35:33;;;;;;;2.00;1.13;;;11.00;99.90;;;;;;5076191;28;20205;-69
2021/03/11 11:37:58;;;;;;;1.23;0.70;;;11.00;99.90;;;;;;5076242;28;20439;-68
2021/03/11 11:40:24;;;;;;;1.30;1.07;;;10.80;99.90;;;;;;5076217;28;20178;-68
2021/03/11 11:42:50;;;;;;;1.57;1.30;;;10.80;99.90;;;;;;5075932;28;20170;-69
2021/03/11 11:45:16;;;;;;;0.80;0.80;;;10.90;99.90;;;;;;5075969;28;20643;-68
2021/03/11 11:47:42;;;;;;;5.53;1.33;;;10.90;99.90;;;;;;5075911;28;20158;-68
2021/03/11 11:50:10;;;;;;;1.13;1.00;;;10.90;99.90;;;;;;5075824;28;20542;-68
2021/03/11 11:52:37;;;;;;;1.05;0.95;;;10.70;99.90;;;;;;5075834;28;20626;-68
2021/03/11 11:55:05;;;;;;;1.45;1.10;;;10.80;99.90;;;;;;5075661;28;20198;-69
2021/03/11 11:57:30;;;;;;;0.90;0.90;;;10.70;99.90;;;;;;5075780;28;20197;-68
2021/03/11 11:59:57;;;;;;;0.90;0.80;;;10.70;99.90;;;;;;5075779;28;20227;-68
2021/03/11 12:02:23;;;;;;;2.17;1.10;;;10.70;99.90;;;;;;5075649;28;20169;-69
2021/03/11 12:04:49;;;;;;;0.60;0.60;;;10.70;99.90;;;;;;5074930;28;20177;-68
2021/03/11 12:07:14;;;;;;;2.63;1.43;;;10.60;99.90;;;;;;5075648;28;20172;-69
2021/03/11 12:09:40;;;;;;;1.63;1.30;;;10.70;99.90;;;;;;5075482;28;20423;-69
2021/03/11 12:12:06;;;;;;;2.53;1.80;;;10.80;99.90;;;;;;5074367;28;20180;-70
2021/03/11 12:14:32;;;;;;;0.95;0.95;;;10.90;99.90;;;;;;5075291;28;20173;-70
2021/03/11 12:16:59;;;;;;;1.40;1.30;;;10.80;99.90;;;;;;5074706;28;20227;-69
2021/03/11 12:19:24;;;;;;;0.93;0.80;;;10.90;99.90;;;;;;5074810;28;20205;-68
2021/03/11 12:21:50;;;;;;;0.77;0.77;;;11.00;99.90;;;;;;5075573;28;20586;-70
2021/03/11 12:24:16;;;;;;;4.27;3.87;;;11.20;99.90;;;;;;5073933;28;20265;-70
2021/03/11 12:26:41;;;;;;;2.30;1.07;;;11.30;99.50;;;;;;5075681;28;20174;-68
2021/03/11 12:29:07;;;;;;;1.43;1.23;;;11.40;99.90;;;;;;5075100;28;20196;-68
2021/03/11 12:31:33;;;;;;;0.70;0.70;;;11.40;99.90;;;;;;5075316;28;20661;-68
2021/03/11 12:33:59;;;;;;;1.30;1.20;;;11.40;99.90;;;;;;5074905;28;20555;-69
2021/03/11 12:36:25;;;;;;;1.17;1.07;;;11.40;99.90;;;;;;5074992;28;20522;-69
2021/03/11 12:38:52;;;;;;;1.33;1.00;;;11.40;99.90;;;;;;5075015;28;20562;-68
2021/03/11 12:41:21;;;;;;;1.20;1.10;;;11.50;99.60;;;;;;5075113;28;20166;-68
2021/03/11 12:43:48;;;;;;;3.45;0.93;;;11.60;99.20;;;;;;5074692;28;20540;-70
2021/03/11 12:46:14;;;;;;;1.07;1.03;;;11.70;98.80;;;;;;5075088;28;20258;-69
2021/03/11 12:48:39;;;;;;;1.10;0.70;;;11.70;99.90;;;;;;5074938;28;20518;-69
2021/03/11 12:51:05;;;;;;;0.80;0.80;;;11.70;99.90;;;;;;5074918;28;20407;-69
2021/03/11 12:53:31;;;;;;;1.90;1.33;;;11.70;99.40;;;;;;5074794;28;20174;-69
2021/03/11 12:55:57;;;;;;;0.70;0.60;;;11.70;99.20;;;;;;5074637;28;20528;-68
2021/03/11 12:58:22;;;;;;;1.17;0.77;;;11.70;99.60;;;;;;5074633;28;20186;-69